Etusivu
METAR-TAF:

METAR-TAF

Lentoasemat :

Esbjerg, Tanska

Leveyspiiri: 55-32N, Pituuspiiri: 008-34E, korkeus merenpinnasta: 30 m

Tämänhetkinen sää

Tämä raportti tehtiin 24 minuuttia sitten, kello 15.50 UTC
Tuuli 6 kn idästä/kaakosta, vaihdellen idän ja etelän/kaakon välillä
Lämpötila 28°C
Kosteus 55%
Ilmanpaine 1020 hPa
Näkyvyys 10 km tai enemmän

METAR: EKEB 111550Z AUTO 12006KT 080V150 9999 NCD 28/18 Q1020

Aika: 18:14 (16:14 UTC)

Sääennuste

Tämä raportti tehtiin 1 tunti ja 50 minuuttia sitten, kello 14.24 UTC
Ennuste voimassa 11. päivästä klo 15 UTC - 11. päivään klo 22 UTC
Tuuli 8 kn idästä/kaakosta
Näkyvyys 10 km tai enemmän
Muutamia pilviä 3000 ft:n korkeudessa

TAF: EKEB 111424Z 1115/1122 12008KT 9999 FEW030

Säähavainnot ja -ennusteet yli 4000 lentoasemalta (METAR- ja TAF-raportit).

Käytössä olevat sääasemat on merkitty karttaan keltaisilla ja punaisilla pisteillä.

Aseta hiiri pisteen päälle nähdäksesi sääaseman nimen.

Klikkaa sitten nähdäksesi säähavainnot ja -ennusteet.

Kartan vaihtaminen: klikkaa mustalla rastilla varustettuja vihreitä pisteitä, niin voit zoomata sisään; viivalla varustettua vihreää pistettä, niin voit zoomata ulos tai vihreitä nuolia, niin pääset viereisille kartoille.


METAR-TAF: